Staden, Belgium
Current Conditions -  °F | °C
As of 3:50 AM on Wednesday 26 Nov 2014 (Local Time) from EBOS Reporting Station
Few Clouds Few Clouds  
Wind Chill: 36°   Ceiling: Unl
Heat Index: 41°   Visibility: 6mi
Dew Point: 37°   Wind: 7mph
Humidity: 87%   Direction: 90°E
Pressure: 29.97"   Gusts: NA
Location:  50.97°N, 3.01°E
Report Text: EBOS 260250Z 09006KT 9999 FEW035 05/03 Q1015 NOSIG
Loading
Personal Weather Stations






























Interactive Weather Map New forecast layout! Learn more

10-Day Weather Forecast

Advertisements
Track Severe Weather on mobile